Accueil
METAR-TAF:

METAR-TAF

Aéroports :

Seyresse

Dax, France

latitude: 43-41N, longitude: 001-04W, altitude: 32 m

Observation

Le bulletin a été fait il y a 54 minutes, à 14:00 UTC
Vent 6 kt de est, variant entre nord/nord-ouest et sud-est
Température 31°C
Humidité 31%
Pression 1020 hPa
Visibilité 10 km ou plus
pas de nuages en-dessous de 1500 mètres et pas de cumulonimbus.

METAR: LFBY 281400Z 10006KT 340V140 CAVOK 31/12 Q1020

Heure: 16:54 (14:54 UTC)

Prévision

Le bulletin a été fait il y a 6 heures et 54 minutes, à 08:00 UTC
Prévision valable du 28 à 09 UTC au 28 à 18 UTC
Vent 4 kt de est/nord-est
Visibilité 10 km ou plus
pas de nuages en-dessous de 1500 mètres et pas de cumulonimbus.

TAF: LFBY 280800Z 2809/2818 07004KT CAVOK

Observations et prévisions météorologiques de plus de 4000 aéroports (messages METAR et TAF).

Les stations disponibles sont représentées par des disques jaunes et rouges sur la carte.

Passer la souris dessus pour voir le nom de la station.

Cliquer dessus pour voir les observations et prévisions météorologiques.

Pour changer de carte: cliquez sur les boutons verts avec une croix noire pour zoomer, sur le bouton vert avec un tiret pour effectuer un zoom arrière, ou sur les flèches vertes pour les cartes adjacentes.


METAR-TAF: